METAR Data

Data at: 2210 UTC 01 Dec 2021

METAR for:CYSJ (Saint John Arpt, NB, CA)
Text:CYSJ 012100Z 21002KT 15SM VCSH FEW015 SCT045 SCT072 00/M01 A3000 RMK CF2SC1AC1 VIA CYXU SLP166
Temperature: 0.0°C ( 32°F)
Dewpoint: -1.0°C ( 30°F) [RH = 93%]
Pressure (altimeter):30.00 inches Hg (1016.0 mb) [Sea level pressure: 1016.6 mb]
Winds:from the SSW (210 degrees) at 2 MPH (2 knots; 1.0 m/s)
Visibility: 15 sm ( 24 km)
Ceiling:at least 12,000 feet AGL
Clouds: few clouds at 1500 feet AGL, scattered clouds at 4500 feet AGL, scattered clouds at 7200 feet AGL
Weather:VCSH (showers in vicinity)